sensor_id;sensor_type;location;lat;lon;timestamp;pressure;altitude;pressure_sealevel;temperature;humidity
54546;BME280;40444;45.184;9.850;2023-03-13T00:01:28;101104.56;;;7.60;100.00
54546;BME280;40444;45.184;9.850;2023-03-13T00:03:57;101106.81;;;7.66;100.00
54546;BME280;40444;45.184;9.850;2023-03-13T00:06:27;101104.91;;;7.68;100.00
54546;BME280;40444;45.184;9.850;2023-03-13T00:09:00;101092.94;;;7.74;100.00
54546;BME280;40444;45.184;9.850;2023-03-13T00:11:28;101089.44;;;7.73;100.00
54546;BME280;40444;45.184;9.850;2023-03-13T00:13:58;101099.25;;;7.73;100.00
54546;BME280;40444;45.184;9.850;2023-03-13T00:16:28;101106.69;;;7.68;100.00
54546;BME280;40444;45.184;9.850;2023-03-13T00:18:57;101106.28;;;7.74;100.00
54546;BME280;40444;45.184;9.850;2023-03-13T00:21:27;101111.94;;;7.69;100.00
54546;BME280;40444;45.184;9.850;2023-03-13T00:23:58;101109.13;;;7.58;100.00
54546;BME280;40444;45.184;9.850;2023-03-13T00:26:27;101107.88;;;7.64;100.00
54546;BME280;40444;45.184;9.850;2023-03-13T00:28:56;101103.81;;;7.58;100.00
54546;BME280;40444;45.184;9.850;2023-03-13T00:31:26;101104.25;;;7.52;100.00
54546;BME280;40444;45.184;9.850;2023-03-13T00:34:02;101101.38;;;7.55;100.00
54546;BME280;40444;45.184;9.850;2023-03-13T00:36:32;101098.91;;;7.52;100.00
54546;BME280;40444;45.184;9.850;2023-03-13T00:39:03;101094.09;;;7.57;100.00
54546;BME280;40444;45.184;9.850;2023-03-13T00:41:35;101100.72;;;7.64;100.00
54546;BME280;40444;45.184;9.850;2023-03-13T00:44:04;101094.13;;;7.70;100.00
54546;BME280;40444;45.184;9.850;2023-03-13T00:46:33;101092.75;;;7.77;100.00
54546;BME280;40444;45.184;9.850;2023-03-13T00:49:01;101096.88;;;7.81;100.00
54546;BME280;40444;45.184;9.850;2023-03-13T00:51:29;101090.69;;;7.80;100.00
54546;BME280;40444;45.184;9.850;2023-03-13T00:53:58;101105.44;;;7.86;100.00
54546;BME280;40444;45.184;9.850;2023-03-13T00:56:27;101111.28;;;7.91;100.00
54546;BME280;40444;45.184;9.850;2023-03-13T00:58:56;101114.59;;;7.95;100.00
54546;BME280;40444;45.184;9.850;2023-03-13T01:01:29;101111.69;;;7.98;100.00
54546;BME280;40444;45.184;9.850;2023-03-13T01:04:09;101110.19;;;7.94;100.00
54546;BME280;40444;45.184;9.850;2023-03-13T01:06:39;101107.44;;;7.95;100.00
54546;BME280;40444;45.184;9.850;2023-03-13T01:09:13;101100.28;;;7.96;100.00
54546;BME280;40444;45.184;9.850;2023-03-13T01:11:43;101100.06;;;7.99;100.00
54546;BME280;40444;45.184;9.850;2023-03-13T01:14:18;101109.16;;;7.96;100.00
54546;BME280;40444;45.184;9.850;2023-03-13T01:16:47;101116.94;;;7.99;100.00
54546;BME280;40444;45.184;9.850;2023-03-13T01:19:15;101114.47;;;7.96;100.00
54546;BME280;40444;45.184;9.850;2023-03-13T01:21:45;101110.84;;;7.97;100.00
54546;BME280;40444;45.184;9.850;2023-03-13T01:24:13;101110.19;;;7.94;100.00
54546;BME280;40444;45.184;9.850;2023-03-13T01:26:43;101111.16;;;7.93;100.00
54546;BME280;40444;45.184;9.850;2023-03-13T01:29:12;101112.56;;;7.85;100.00
54546;BME280;40444;45.184;9.850;2023-03-13T01:31:40;101111.94;;;7.82;100.00
54546;BME280;40444;45.184;9.850;2023-03-13T01:34:09;101115.47;;;7.82;100.00
54546;BME280;40444;45.184;9.850;2023-03-13T01:36:38;101109.03;;;7.85;100.00
54546;BME280;40444;45.184;9.850;2023-03-13T01:39:06;101106.88;;;7.90;100.00
54546;BME280;40444;45.184;9.850;2023-03-13T01:41:36;101103.03;;;7.94;100.00
54546;BME280;40444;45.184;9.850;2023-03-13T01:44:04;101113.09;;;7.91;100.00
54546;BME280;40444;45.184;9.850;2023-03-13T01:46:36;101113.75;;;7.81;100.00
54546;BME280;40444;45.184;9.850;2023-03-13T01:49:22;101107.13;;;7.74;100.00
54546;BME280;40444;45.184;9.850;2023-03-13T01:52:13;101105.09;;;7.65;100.00
54546;BME280;40444;45.184;9.850;2023-03-13T01:55:10;101102.31;;;7.54;100.00
54546;BME280;40444;45.184;9.850;2023-03-13T01:57:47;101104.56;;;7.47;100.00
54546;BME280;40444;45.184;9.850;2023-03-13T02:00:23;101102.63;;;7.49;100.00
54546;BME280;40444;45.184;9.850;2023-03-13T02:02:54;101094.41;;;7.40;100.00
54546;BME280;40444;45.184;9.850;2023-03-13T02:05:26;101092.06;;;7.35;100.00
54546;BME280;40444;45.184;9.850;2023-03-13T02:10:30;101099.53;;;7.30;100.00
54546;BME280;40444;45.184;9.850;2023-03-13T02:13:02;101112.72;;;7.31;100.00
54546;BME280;40444;45.184;9.850;2023-03-13T02:15:31;101102.06;;;7.31;100.00
54546;BME280;40444;45.184;9.850;2023-03-13T02:18:01;101110.53;;;7.38;100.00
54546;BME280;40444;45.184;9.850;2023-03-13T02:20:31;101116.06;;;7.35;100.00
54546;BME280;40444;45.184;9.850;2023-03-13T02:23:21;101119.56;;;7.35;100.00
54546;BME280;40444;45.184;9.850;2023-03-13T02:25:52;101113.28;;;7.37;100.00
54546;BME280;40444;45.184;9.850;2023-03-13T02:28:33;101127.69;;;7.34;100.00
54546;BME280;40444;45.184;9.850;2023-03-13T02:31:05;101119.53;;;7.23;100.00
54546;BME280;40444;45.184;9.850;2023-03-13T02:33:38;101124.28;;;7.05;100.00
54546;BME280;40444;45.184;9.850;2023-03-13T02:36:13;101121.63;;;7.05;100.00
54546;BME280;40444;45.184;9.850;2023-03-13T02:38:55;101123.69;;;6.87;100.00
54546;BME280;40444;45.184;9.850;2023-03-13T02:41:27;101112.19;;;6.87;100.00
54546;BME280;40444;45.184;9.850;2023-03-13T02:43:57;101109.09;;;6.80;100.00
54546;BME280;40444;45.184;9.850;2023-03-13T02:46:26;101117.38;;;6.75;100.00
54546;BME280;40444;45.184;9.850;2023-03-13T02:48:55;101118.53;;;6.71;100.00
54546;BME280;40444;45.184;9.850;2023-03-13T02:53:58;101128.56;;;6.53;100.00
54546;BME280;40444;45.184;9.850;2023-03-13T02:56:32;101126.38;;;6.46;100.00
54546;BME280;40444;45.184;9.850;2023-03-13T02:59:01;101117.47;;;6.32;100.00
54546;BME280;40444;45.184;9.850;2023-03-13T03:01:30;101122.56;;;6.50;100.00
54546;BME280;40444;45.184;9.850;2023-03-13T03:04:00;101109.63;;;6.58;100.00
54546;BME280;40444;45.184;9.850;2023-03-13T03:06:28;101105.81;;;6.62;100.00
54546;BME280;40444;45.184;9.850;2023-03-13T03:08:57;101093.41;;;6.75;100.00
54546;BME280;40444;45.184;9.850;2023-03-13T03:11:27;101104.56;;;6.68;100.00
54546;BME280;40444;45.184;9.850;2023-03-13T03:14:01;101109.16;;;6.66;100.00
54546;BME280;40444;45.184;9.850;2023-03-13T03:16:34;101101.84;;;6.55;100.00
54546;BME280;40444;45.184;9.850;2023-03-13T03:19:05;101104.44;;;6.69;100.00
54546;BME280;40444;45.184;9.850;2023-03-13T03:21:34;101104.00;;;6.63;100.00
54546;BME280;40444;45.184;9.850;2023-03-13T03:24:02;101101.69;;;6.29;100.00
54546;BME280;40444;45.184;9.850;2023-03-13T03:26:30;101115.06;;;6.56;100.00
54546;BME280;40444;45.184;9.850;2023-03-13T03:28:59;101116.69;;;6.45;100.00
54546;BME280;40444;45.184;9.850;2023-03-13T03:31:29;101117.75;;;6.69;100.00
54546;BME280;40444;45.184;9.850;2023-03-13T03:33:58;101109.81;;;6.82;100.00
54546;BME280;40444;45.184;9.850;2023-03-13T03:36:28;101107.22;;;6.95;100.00
54546;BME280;40444;45.184;9.850;2023-03-13T03:38:56;101105.94;;;7.00;100.00
54546;BME280;40444;45.184;9.850;2023-03-13T03:41:26;101110.03;;;7.06;100.00
54546;BME280;40444;45.184;9.850;2023-03-13T03:43:55;101119.53;;;7.10;100.00
54546;BME280;40444;45.184;9.850;2023-03-13T03:46:27;101118.16;;;7.17;100.00
54546;BME280;40444;45.184;9.850;2023-03-13T03:48:56;101116.03;;;7.22;100.00
54546;BME280;40444;45.184;9.850;2023-03-13T03:51:25;101120.50;;;7.22;100.00
54546;BME280;40444;45.184;9.850;2023-03-13T03:53:53;101113.03;;;7.27;100.00
54546;BME280;40444;45.184;9.850;2023-03-13T03:56:21;101117.00;;;7.34;100.00
54546;BME280;40444;45.184;9.850;2023-03-13T03:58:54;101120.63;;;7.20;100.00
54546;BME280;40444;45.184;9.850;2023-03-13T04:01:36;101118.59;;;7.24;100.00
54546;BME280;40444;45.184;9.850;2023-03-13T04:04:05;101117.63;;;7.25;100.00
54546;BME280;40444;45.184;9.850;2023-03-13T04:06:33;101129.34;;;7.22;100.00
54546;BME280;40444;45.184;9.850;2023-03-13T04:09:03;101134.56;;;7.11;100.00
54546;BME280;40444;45.184;9.850;2023-03-13T04:11:33;101138.22;;;6.96;100.00
54546;BME280;40444;45.184;9.850;2023-03-13T04:14:03;101128.34;;;6.98;100.00
54546;BME280;40444;45.184;9.850;2023-03-13T04:16:31;101134.00;;;7.06;100.00
54546;BME280;40444;45.184;9.850;2023-03-13T04:19:00;101130.72;;;7.15;100.00
54546;BME280;40444;45.184;9.850;2023-03-13T04:21:30;101152.41;;;7.23;100.00
54546;BME280;40444;45.184;9.850;2023-03-13T04:24:02;101148.34;;;7.30;100.00
54546;BME280;40444;45.184;9.850;2023-03-13T04:26:34;101143.66;;;7.34;100.00
54546;BME280;40444;45.184;9.850;2023-03-13T04:29:03;101140.03;;;7.35;100.00
54546;BME280;40444;45.184;9.850;2023-03-13T04:31:45;101154.69;;;7.42;100.00
54546;BME280;40444;45.184;9.850;2023-03-13T04:34:43;101149.78;;;7.49;100.00
54546;BME280;40444;45.184;9.850;2023-03-13T04:37:33;101138.91;;;7.52;100.00
54546;BME280;40444;45.184;9.850;2023-03-13T04:40:22;101152.97;;;7.54;100.00
54546;BME280;40444;45.184;9.850;2023-03-13T04:43:06;101154.72;;;7.55;100.00
54546;BME280;40444;45.184;9.850;2023-03-13T04:45:51;101166.66;;;7.62;100.00
54546;BME280;40444;45.184;9.850;2023-03-13T04:48:21;101165.28;;;7.69;100.00
54546;BME280;40444;45.184;9.850;2023-03-13T04:51:08;101160.28;;;7.77;100.00
54546;BME280;40444;45.184;9.850;2023-03-13T04:54:00;101153.44;;;7.86;100.00
54546;BME280;40444;45.184;9.850;2023-03-13T04:57:03;101167.31;;;7.91;100.00
54546;BME280;40444;45.184;9.850;2023-03-13T05:00:01;101170.53;;;7.96;100.00
54546;BME280;40444;45.184;9.850;2023-03-13T05:02:48;101181.84;;;8.00;100.00
54546;BME280;40444;45.184;9.850;2023-03-13T05:05:34;101181.59;;;8.03;100.00
54546;BME280;40444;45.184;9.850;2023-03-13T05:08:18;101189.41;;;8.06;100.00
54546;BME280;40444;45.184;9.850;2023-03-13T05:11:04;101164.66;;;8.04;100.00
54546;BME280;40444;45.184;9.850;2023-03-13T05:13:56;101166.56;;;8.02;100.00
54546;BME280;40444;45.184;9.850;2023-03-13T05:16:37;101178.31;;;7.99;100.00
54546;BME280;40444;45.184;9.850;2023-03-13T05:19:12;101186.09;;;8.02;100.00
54546;BME280;40444;45.184;9.850;2023-03-13T05:21:58;101186.00;;;8.04;100.00
54546;BME280;40444;45.184;9.850;2023-03-13T05:24:56;101168.06;;;8.06;100.00
54546;BME280;40444;45.184;9.850;2023-03-13T23:06:04;100255.91;;;11.32;100.00
54546;BME280;40444;45.184;9.850;2023-03-13T23:08:34;100239.63;;;11.34;100.00
54546;BME280;40444;45.184;9.850;2023-03-13T23:11:03;100208.53;;;11.41;100.00
54546;BME280;40444;45.184;9.850;2023-03-13T23:13:32;100209.09;;;11.45;100.00
54546;BME280;40444;45.184;9.850;2023-03-13T23:16:04;100211.94;;;11.43;100.00
54546;BME280;40444;45.184;9.850;2023-03-13T23:18:32;100191.34;;;11.52;100.00
54546;BME280;40444;45.184;9.850;2023-03-13T23:21:12;100194.91;;;11.52;100.00
54546;BME280;40444;45.184;9.850;2023-03-13T23:23:41;100185.16;;;11.69;100.00
54546;BME280;40444;45.184;9.850;2023-03-13T23:26:12;100192.81;;;11.64;100.00
54546;BME280;40444;45.184;9.850;2023-03-13T23:28:42;100200.66;;;11.57;100.00
54546;BME280;40444;45.184;9.850;2023-03-13T23:31:17;100198.97;;;11.56;100.00
54546;BME280;40444;45.184;9.850;2023-03-13T23:33:47;100195.28;;;11.57;100.00
54546;BME280;40444;45.184;9.850;2023-03-13T23:36:17;100191.16;;;11.63;100.00
54546;BME280;40444;45.184;9.850;2023-03-13T23:38:51;100186.78;;;11.62;100.00
54546;BME280;40444;45.184;9.850;2023-03-13T23:41:20;100179.66;;;11.53;100.00
54546;BME280;40444;45.184;9.850;2023-03-13T23:43:48;100174.88;;;11.64;100.00
54546;BME280;40444;45.184;9.850;2023-03-13T23:46:19;100168.94;;;11.53;100.00
54546;BME280;40444;45.184;9.850;2023-03-13T23:48:47;100169.13;;;11.59;100.00
54546;BME280;40444;45.184;9.850;2023-03-13T23:51:15;100170.69;;;11.62;100.00
54546;BME280;40444;45.184;9.850;2023-03-13T23:53:44;100180.03;;;11.58;100.00
54546;BME280;40444;45.184;9.850;2023-03-13T23:56:12;100168.38;;;11.49;100.00
54546;BME280;40444;45.184;9.850;2023-03-13T23:58:41;100149.31;;;11.52;100.00
